createdAt,value
2019-03-24T00:02:33.713Z,31.93
2019-03-24T00:05:15.217Z,32.28
2019-03-24T00:07:56.890Z,33.33
2019-03-24T00:10:37.237Z,30.17
2019-03-24T00:13:17.530Z,32.88
2019-03-24T00:15:57.782Z,32.17
2019-03-24T00:18:38.776Z,34.40
2019-03-24T00:21:18.881Z,33.28
2019-03-24T00:23:58.696Z,37.45
2019-03-24T00:26:38.837Z,32.83
2019-03-24T00:29:18.750Z,33.75
2019-03-24T00:31:58.962Z,35.35
2019-03-24T00:34:38.674Z,33.25
2019-03-24T00:37:18.731Z,37.30
2019-03-24T00:39:58.917Z,34.18
2019-03-24T00:42:39.215Z,34.95
2019-03-24T00:45:18.873Z,33.75
2019-03-24T00:47:59.563Z,34.18
2019-03-24T00:50:40.509Z,33.98
2019-03-24T00:53:20.141Z,33.20
2019-03-24T00:56:00.023Z,32.65
2019-03-24T00:58:40.550Z,33.25
2019-03-24T01:01:20.230Z,34.95
2019-03-24T01:04:02.497Z,39.73
2019-03-24T01:06:44.865Z,35.35
2019-03-24T01:09:25.589Z,37.23
2019-03-24T01:12:05.655Z,39.05
2019-03-24T01:14:45.365Z,42.40
2019-03-24T01:17:25.686Z,46.13
2019-03-24T01:20:05.532Z,36.40
2019-03-24T01:22:45.547Z,37.03
2019-03-24T01:25:25.353Z,35.92
2019-03-24T01:28:05.101Z,33.65
2019-03-24T01:30:45.214Z,42.35
2019-03-24T01:33:25.013Z,46.70
2019-03-24T01:36:05.540Z,41.40
2019-03-24T01:38:45.087Z,38.60
2019-03-24T01:41:25.319Z,39.23
2019-03-24T01:44:05.701Z,35.45
2019-03-24T01:46:45.521Z,36.55
2019-03-24T01:49:26.009Z,34.38
2019-03-24T01:52:06.093Z,35.10
2019-03-24T01:54:45.784Z,34.15
2019-03-24T01:57:25.809Z,34.58
2019-03-24T02:00:06.257Z,32.38
2019-03-24T02:02:46.041Z,46.18
2019-03-24T02:05:26.381Z,36.28
2019-03-24T02:08:06.352Z,31.87
2019-03-24T02:10:46.758Z,33.20
2019-03-24T02:13:26.504Z,32.20
2019-03-24T02:16:09.520Z,30.08
2019-03-24T02:18:48.324Z,28.77
2019-03-24T02:21:28.434Z,32.48
2019-03-24T02:24:08.502Z,29.65
2019-03-24T02:26:48.293Z,30.85
2019-03-24T02:29:28.621Z,30.90
2019-03-24T02:32:08.568Z,31.07
2019-03-24T02:34:48.966Z,32.67
2019-03-24T02:37:29.391Z,33.18
2019-03-24T02:40:09.426Z,32.65
2019-03-24T02:42:49.741Z,31.93
2019-03-24T02:45:29.644Z,29.65
2019-03-24T02:48:09.747Z,33.50
2019-03-24T02:50:49.955Z,33.50
2019-03-24T02:53:29.443Z,31.80
2019-03-24T02:56:09.677Z,36.73
2019-03-24T02:58:49.581Z,34.55
2019-03-24T03:01:29.239Z,33.98
2019-03-24T03:04:09.501Z,31.20
2019-03-24T03:06:49.729Z,32.75
2019-03-24T03:09:29.736Z,34.65
2019-03-24T03:12:09.578Z,38.10
2019-03-24T03:14:50.045Z,33.15
2019-03-24T03:17:30.029Z,35.28
2019-03-24T03:20:09.577Z,32.38
2019-03-24T03:22:49.918Z,29.80
2019-03-24T03:25:29.665Z,31.77
2019-03-24T03:28:09.605Z,30.00
2019-03-24T03:30:50.014Z,30.37
2019-03-24T03:33:29.682Z,29.90
2019-03-24T03:36:09.688Z,28.73
2019-03-24T03:38:49.897Z,28.85
2019-03-24T03:41:29.696Z,30.02
2019-03-24T03:44:09.669Z,28.90
2019-03-24T03:46:52.884Z,29.90
2019-03-24T03:49:32.677Z,28.27
2019-03-24T03:52:12.585Z,28.35
2019-03-24T03:54:52.878Z,32.30
2019-03-24T03:57:32.446Z,31.52
2019-03-24T04:00:13.116Z,30.05
2019-03-24T04:02:53.457Z,30.43
2019-03-24T04:05:33.227Z,31.48
2019-03-24T04:08:01.170Z,30.08
2019-03-24T04:10:48.789Z,29.60
2019-03-24T04:13:29.409Z,29.70
2019-03-24T04:16:09.282Z,29.15
2019-03-24T04:18:49.834Z,27.95
2019-03-24T04:21:31.238Z,27.22
2019-03-24T04:24:11.671Z,28.10
2019-03-24T04:26:51.447Z,29.20
2019-03-24T04:29:32.658Z,28.02
2019-03-24T04:32:12.409Z,28.00
2019-03-24T04:34:52.340Z,28.57
2019-03-24T04:37:33.194Z,29.25
2019-03-24T04:40:13.391Z,27.52
2019-03-24T04:42:53.986Z,27.15
2019-03-24T04:45:34.521Z,29.55
2019-03-24T04:48:14.741Z,28.30
2019-03-24T04:50:55.025Z,28.27
2019-03-24T04:53:36.075Z,29.20
2019-03-24T04:56:16.214Z,26.48
2019-03-24T04:58:55.761Z,28.00
2019-03-24T05:01:35.983Z,27.35
2019-03-24T05:04:15.966Z,26.73
2019-03-24T05:06:56.222Z,27.07
2019-03-24T05:09:36.638Z,27.05
2019-03-24T05:12:16.850Z,26.37
2019-03-24T05:14:57.157Z,27.20
2019-03-24T05:17:37.171Z,26.57
2019-03-24T05:20:17.337Z,25.02
2019-03-24T05:22:57.339Z,25.45
2019-03-24T05:25:37.129Z,27.32
2019-03-24T05:28:17.629Z,26.68
2019-03-24T05:30:57.066Z,24.70
2019-03-24T05:33:37.355Z,23.83
2019-03-24T05:36:17.581Z,24.98
2019-03-24T05:38:57.207Z,24.65
2019-03-24T05:41:37.531Z,24.27
2019-03-24T05:44:17.669Z,24.27
2019-03-24T05:46:57.935Z,27.40
2019-03-24T05:49:37.629Z,24.43
2019-03-24T05:52:17.977Z,25.50
2019-03-24T05:54:59.133Z,24.95
2019-03-24T05:57:38.931Z,24.55
2019-03-24T06:00:19.073Z,26.42
2019-03-24T06:02:58.893Z,23.90
2019-03-24T06:05:40.266Z,22.77
2019-03-24T06:08:20.166Z,24.52
2019-03-24T06:10:59.867Z,24.70
2019-03-24T06:13:40.141Z,25.80
2019-03-24T06:16:20.497Z,26.77
2019-03-24T06:19:00.809Z,27.77
2019-03-24T06:21:41.446Z,29.75
2019-03-24T06:24:21.542Z,28.35
2019-03-24T06:27:01.631Z,27.82
2019-03-24T06:29:41.433Z,27.87
2019-03-24T06:32:21.934Z,28.98
2019-03-24T06:35:02.239Z,27.22
2019-03-24T06:37:42.534Z,27.37
2019-03-24T06:40:22.217Z,25.52
2019-03-24T06:43:02.379Z,25.97
2019-03-24T06:45:42.373Z,26.00
2019-03-24T06:48:22.181Z,26.60
2019-03-24T06:51:02.254Z,27.42
2019-03-24T06:53:42.655Z,30.32
2019-03-24T06:56:22.384Z,30.45
2019-03-24T06:59:02.719Z,31.87
2019-03-24T07:01:43.157Z,30.43
2019-03-24T07:04:23.326Z,28.75
2019-03-24T07:07:03.884Z,30.50
2019-03-24T07:09:43.225Z,32.45
2019-03-24T07:12:23.293Z,31.80
2019-03-24T07:15:03.538Z,30.97
2019-03-24T07:17:43.061Z,31.23
2019-03-24T07:20:23.150Z,29.92
2019-03-24T07:23:03.310Z,30.92
2019-03-24T07:25:43.764Z,31.15
2019-03-24T07:28:24.970Z,30.08
2019-03-24T07:31:05.989Z,31.50
2019-03-24T07:33:46.442Z,30.35
2019-03-24T07:36:26.529Z,29.42
2019-03-24T07:39:08.927Z,29.10
2019-03-24T07:41:48.834Z,29.45
2019-03-24T07:44:29.037Z,32.23
2019-03-24T07:47:09.475Z,32.50
2019-03-24T07:49:50.030Z,30.48
2019-03-24T07:52:30.206Z,31.73
2019-03-24T07:55:10.013Z,31.83
2019-03-24T07:57:50.295Z,31.12
2019-03-24T08:00:30.170Z,32.30
2019-03-24T08:03:10.452Z,31.30
2019-03-24T08:05:51.078Z,30.85
2019-03-24T08:08:31.065Z,29.40
2019-03-24T08:11:10.693Z,31.35
2019-03-24T08:13:54.008Z,30.23
2019-03-24T08:16:32.698Z,30.20
2019-03-24T08:19:14.006Z,29.90
2019-03-24T08:21:53.884Z,29.60
2019-03-24T08:24:33.876Z,35.83
2019-03-24T08:27:13.695Z,32.45
2019-03-24T08:29:53.926Z,34.13
2019-03-24T08:32:33.842Z,30.33
2019-03-24T08:35:14.665Z,32.53
2019-03-24T08:37:55.306Z,28.57
2019-03-24T08:40:35.481Z,30.40
2019-03-24T08:43:15.402Z,31.90
2019-03-24T08:45:55.997Z,32.03
2019-03-24T08:48:40.839Z,29.67
2019-03-24T08:51:17.614Z,30.27
2019-03-24T08:53:57.985Z,29.00
2019-03-24T08:56:37.906Z,30.10
2019-03-24T08:59:18.034Z,36.40
2019-03-24T09:01:57.751Z,33.60
2019-03-24T09:04:38.145Z,35.57
2019-03-24T09:07:17.902Z,33.13
2019-03-24T09:09:57.790Z,32.07
2019-03-24T09:12:38.523Z,34.70
2019-03-24T09:15:17.979Z,31.63
2019-03-24T09:17:58.891Z,33.97
2019-03-24T09:20:41.877Z,32.57
2019-03-24T09:23:21.848Z,33.27
2019-03-24T09:26:02.210Z,31.70
2019-03-24T09:28:42.454Z,34.13
2019-03-24T09:31:23.609Z,31.23
2019-03-24T09:34:03.046Z,33.37
2019-03-24T09:36:43.264Z,34.20
2019-03-24T09:39:23.642Z,31.83
2019-03-24T09:42:03.566Z,32.80
2019-03-24T09:44:43.481Z,31.27
2019-03-24T09:47:23.478Z,32.13
2019-03-24T09:50:03.662Z,33.60
2019-03-24T09:52:43.603Z,32.33
2019-03-24T09:55:24.517Z,33.07
2019-03-24T09:58:04.597Z,30.70
2019-03-24T10:00:45.237Z,30.80
2019-03-24T10:03:25.477Z,31.93
2019-03-24T10:06:07.736Z,31.57
2019-03-24T10:08:48.051Z,33.13
2019-03-24T10:11:28.543Z,30.90
2019-03-24T10:14:09.910Z,32.33
2019-03-24T10:16:50.492Z,28.97
2019-03-24T10:19:32.988Z,30.33
2019-03-24T10:22:13.334Z,33.00
2019-03-24T10:24:54.014Z,31.70
2019-03-24T10:27:34.861Z,31.47
2019-03-24T10:30:15.037Z,34.77
2019-03-24T10:32:56.036Z,35.43
2019-03-24T10:35:37.042Z,33.47
2019-03-24T10:38:17.550Z,31.73
2019-03-24T10:40:57.741Z,34.10
2019-03-24T10:43:38.337Z,38.37
2019-03-24T10:46:18.306Z,33.73
2019-03-24T10:48:57.809Z,34.00
2019-03-24T10:51:38.019Z,36.47
2019-03-24T10:54:17.943Z,35.60
2019-03-24T10:56:58.601Z,32.07
2019-03-24T10:59:38.890Z,36.67
2019-03-24T11:02:18.974Z,34.77
2019-03-24T11:04:59.189Z,40.70
2019-03-24T11:07:39.191Z,33.40
2019-03-24T11:10:21.148Z,34.90
2019-03-24T11:13:01.294Z,32.73
2019-03-24T11:15:41.702Z,33.57
2019-03-24T11:18:22.208Z,32.70
2019-03-24T11:21:02.580Z,33.83
2019-03-24T11:23:42.538Z,38.80
2019-03-24T11:26:23.161Z,35.67
2019-03-24T11:29:03.337Z,35.00
2019-03-24T11:31:44.027Z,35.03
2019-03-24T11:34:25.231Z,35.47
2019-03-24T11:37:06.272Z,34.10
2019-03-24T11:39:47.703Z,33.50
2019-03-24T11:42:28.030Z,37.40
2019-03-24T11:45:07.729Z,35.83
2019-03-24T11:47:48.123Z,34.90
2019-03-24T11:50:28.055Z,35.73
2019-03-24T11:53:07.497Z,35.40
2019-03-24T11:55:47.982Z,37.87
2019-03-24T11:58:27.731Z,38.77
2019-03-24T12:01:08.599Z,37.83
2019-03-24T12:03:48.959Z,34.40
2019-03-24T12:06:28.862Z,36.30
2019-03-24T12:09:08.992Z,35.60
2019-03-24T12:11:49.318Z,37.47
2019-03-24T12:14:30.057Z,37.53
2019-03-24T12:17:10.593Z,35.57
2019-03-24T12:19:56.835Z,37.27
2019-03-24T12:22:33.009Z,36.37
2019-03-24T12:25:13.389Z,36.77
2019-03-24T12:27:53.448Z,37.80
2019-03-24T12:30:33.189Z,35.67
2019-03-24T12:33:13.751Z,37.13
2019-03-24T12:35:54.294Z,37.30
2019-03-24T12:38:35.101Z,36.27
2019-03-24T12:41:15.991Z,36.53
2019-03-24T12:43:55.725Z,38.10
2019-03-24T12:46:36.049Z,37.57
2019-03-24T12:49:15.892Z,34.30
2019-03-24T12:51:56.211Z,37.00
2019-03-24T12:54:35.622Z,35.57
2019-03-24T12:57:15.891Z,36.30
2019-03-24T12:59:55.946Z,35.17
2019-03-24T13:02:36.532Z,37.50
2019-03-24T13:05:17.050Z,38.63
2019-03-24T13:07:56.869Z,38.87
2019-03-24T13:10:37.361Z,36.47
2019-03-24T13:13:17.236Z,36.60
2019-03-24T13:15:57.106Z,38.70
2019-03-24T13:18:37.413Z,40.83
2019-03-24T13:21:17.058Z,40.90
2019-03-24T13:23:57.215Z,40.10
2019-03-24T13:26:37.389Z,37.70
2019-03-24T13:29:17.387Z,35.40
2019-03-24T13:31:57.545Z,36.50
2019-03-24T13:34:37.326Z,37.10
2019-03-24T13:37:17.241Z,37.50
2019-03-24T13:39:57.338Z,35.23
2019-03-24T13:42:36.977Z,40.60
2019-03-24T13:45:17.161Z,37.83
2019-03-24T13:47:57.229Z,38.43
2019-03-24T13:50:37.262Z,38.03
2019-03-24T13:53:17.312Z,35.77
2019-03-24T13:55:57.730Z,34.33
2019-03-24T13:58:37.649Z,35.43
2019-03-24T14:01:18.069Z,35.13
2019-03-24T14:03:57.994Z,33.90
2019-03-24T14:06:37.662Z,35.03
2019-03-24T14:09:17.594Z,31.97
2019-03-24T14:11:57.822Z,34.47
2019-03-24T14:14:37.994Z,35.40
2019-03-24T14:17:17.736Z,34.00
2019-03-24T14:19:58.062Z,36.07
2019-03-24T14:22:37.667Z,35.03
2019-03-24T14:25:17.781Z,34.27
2019-03-24T14:27:57.853Z,35.93
2019-03-24T14:30:38.129Z,34.33
2019-03-24T14:33:18.090Z,34.80
2019-03-24T14:35:57.946Z,34.53
2019-03-24T14:38:37.941Z,34.23
2019-03-24T14:41:17.946Z,35.13
2019-03-24T14:43:57.913Z,34.60
2019-03-24T14:46:38.396Z,35.60
2019-03-24T14:49:18.293Z,35.00
2019-03-24T14:51:58.269Z,37.80
2019-03-24T14:54:38.129Z,34.63
2019-03-24T14:57:18.438Z,35.63
2019-03-24T14:59:58.777Z,33.93
2019-03-24T15:02:40.759Z,34.97
2019-03-24T15:05:20.494Z,33.83
2019-03-24T15:08:00.843Z,34.43
2019-03-24T15:10:40.725Z,34.27
2019-03-24T15:13:20.317Z,31.90
2019-03-24T15:16:00.363Z,34.90
2019-03-24T15:18:40.817Z,32.27
2019-03-24T15:21:20.714Z,33.27
2019-03-24T15:24:00.707Z,35.17
2019-03-24T15:26:40.916Z,33.40
2019-03-24T15:29:20.541Z,33.27
2019-03-24T15:32:00.345Z,34.60
2019-03-24T15:34:40.487Z,32.77
2019-03-24T15:37:20.717Z,32.77
2019-03-24T15:40:02.422Z,32.40
2019-03-24T15:42:42.908Z,35.23
2019-03-24T15:45:22.940Z,33.63
2019-03-24T15:48:02.934Z,33.00
2019-03-24T15:50:43.313Z,32.40
2019-03-24T15:53:22.896Z,31.73
2019-03-24T15:56:03.047Z,29.43
2019-03-24T15:58:43.429Z,29.70
2019-03-24T16:01:23.761Z,33.23
2019-03-24T16:04:03.690Z,33.07
2019-03-24T16:06:43.595Z,30.03
2019-03-24T16:09:23.498Z,29.67
2019-03-24T16:12:04.821Z,29.77
2019-03-24T16:14:44.822Z,29.53
2019-03-24T16:17:25.058Z,29.37
2019-03-24T16:20:04.890Z,29.90
2019-03-24T16:22:44.675Z,31.10
2019-03-24T16:25:24.690Z,28.17
2019-03-24T16:28:04.553Z,28.40
2019-03-24T16:30:45.345Z,29.90
2019-03-24T16:33:24.940Z,29.30
2019-03-24T16:39:06.851Z,29.53
2019-03-24T16:41:46.987Z,29.13
2019-03-24T16:44:27.289Z,29.43
2019-03-24T16:47:07.089Z,27.50
2019-03-24T16:49:47.265Z,27.50
2019-03-24T16:52:27.449Z,24.53
2019-03-24T16:55:07.857Z,27.77
2019-03-24T16:57:49.779Z,26.90
2019-03-24T17:00:29.810Z,30.20
2019-03-24T17:02:58.049Z,26.73
2019-03-24T17:05:45.369Z,27.27
2019-03-24T17:08:25.984Z,25.13
2019-03-24T17:11:06.357Z,23.67
2019-03-24T17:13:46.334Z,23.63
2019-03-24T17:16:26.910Z,21.60
2019-03-24T17:19:07.414Z,23.17
2019-03-24T17:21:50.157Z,23.03
2019-03-24T17:24:31.427Z,22.20
2019-03-24T17:27:11.520Z,21.07
2019-03-24T17:29:51.937Z,17.53
2019-03-24T17:32:31.890Z,17.23
2019-03-24T17:35:13.060Z,13.63
2019-03-24T17:37:54.189Z,12.10
2019-03-24T17:40:38.781Z,11.30
2019-03-24T17:43:16.493Z,10.23
2019-03-24T17:45:56.302Z,10.00
2019-03-24T17:48:36.248Z,10.33
2019-03-24T17:51:16.837Z,9.87
2019-03-24T17:53:56.629Z,9.77
2019-03-24T17:56:37.136Z,9.67
2019-03-24T17:59:16.758Z,9.17
2019-03-24T18:01:57.207Z,8.43
2019-03-24T18:04:37.525Z,9.30
2019-03-24T18:07:18.442Z,8.30
2019-03-24T18:09:58.391Z,8.27
2019-03-24T18:12:38.390Z,7.60
2019-03-24T18:15:48.357Z,8.63
2019-03-24T18:18:35.952Z,9.27
2019-03-24T18:21:16.691Z,8.10
2019-03-24T18:23:56.844Z,8.40
2019-03-24T18:26:37.119Z,8.33
2019-03-24T18:29:17.450Z,8.80
2019-03-24T18:31:58.077Z,9.40
2019-03-24T18:34:38.167Z,9.33
2019-03-24T18:37:18.605Z,9.60
2019-03-24T18:39:58.882Z,10.77
2019-03-24T18:42:39.378Z,10.40
2019-03-24T18:45:19.823Z,10.03
2019-03-24T18:48:00.004Z,11.23
2019-03-24T18:50:40.450Z,12.40
2019-03-24T18:53:21.160Z,13.10
2019-03-24T18:56:01.038Z,11.30
2019-03-24T18:58:41.218Z,10.80
2019-03-24T19:01:21.489Z,9.20
2019-03-24T19:04:01.717Z,9.53
2019-03-24T19:06:41.618Z,8.53
2019-03-24T19:09:21.849Z,9.33
2019-03-24T19:12:01.762Z,9.27
2019-03-24T19:14:41.922Z,9.30
2019-03-24T19:17:22.012Z,8.30
2019-03-24T19:20:03.211Z,7.43
2019-03-24T19:22:44.142Z,7.13
2019-03-24T19:25:24.169Z,7.50
2019-03-24T19:28:04.001Z,8.40
2019-03-24T19:30:44.219Z,8.43
2019-03-24T19:33:24.326Z,8.20
2019-03-24T19:36:04.217Z,8.10
2019-03-24T19:38:44.778Z,7.43
2019-03-24T19:41:26.129Z,7.37
2019-03-24T19:44:07.351Z,7.80
2019-03-24T19:46:48.233Z,8.43
2019-03-24T19:49:28.394Z,7.07
2019-03-24T19:52:08.601Z,8.00
2019-03-24T19:54:49.218Z,7.60
2019-03-24T19:57:29.318Z,7.20
2019-03-24T20:00:09.667Z,7.60
2019-03-24T20:02:51.442Z,6.67
2019-03-24T20:05:32.398Z,7.93
2019-03-24T20:08:13.084Z,8.80
2019-03-24T20:10:54.466Z,8.33
2019-03-24T20:13:34.663Z,8.43
2019-03-24T20:16:15.182Z,9.30
2019-03-24T20:18:55.665Z,9.63
2019-03-24T20:21:36.918Z,9.77
2019-03-24T20:24:17.044Z,10.00
2019-03-24T20:26:58.840Z,9.27
2019-03-24T20:29:39.481Z,10.00
2019-03-24T20:32:20.347Z,10.30
2019-03-24T20:35:01.138Z,10.13
2019-03-24T20:37:40.674Z,10.60
2019-03-24T20:40:20.925Z,9.97
2019-03-24T20:43:01.208Z,9.70
2019-03-24T20:45:41.662Z,9.83
2019-03-24T20:48:21.648Z,11.17
2019-03-24T20:51:02.069Z,10.97
2019-03-24T20:53:42.148Z,9.87
2019-03-24T20:56:22.278Z,9.20
2019-03-24T20:59:02.155Z,9.43
2019-03-24T21:01:42.314Z,10.50
2019-03-24T21:04:22.530Z,11.37
2019-03-24T21:07:03.022Z,10.30
2019-03-24T21:09:42.874Z,13.00
2019-03-24T21:12:23.069Z,12.30
2019-03-24T21:15:03.370Z,11.00
2019-03-24T21:17:43.072Z,11.10
2019-03-24T21:20:23.471Z,13.93
2019-03-24T21:23:03.953Z,14.93
2019-03-24T21:25:43.594Z,15.37
2019-03-24T21:28:23.653Z,15.30
2019-03-24T21:31:03.865Z,15.97
2019-03-24T21:33:43.840Z,15.00
2019-03-24T21:36:24.210Z,13.53
2019-03-24T21:39:04.233Z,14.70
2019-03-24T21:41:43.910Z,14.10
2019-03-24T21:44:24.562Z,14.07
2019-03-24T21:47:04.421Z,16.10
2019-03-24T21:49:44.253Z,14.50
2019-03-24T21:52:24.636Z,16.73
2019-03-24T21:55:04.243Z,17.87
2019-03-24T21:57:44.437Z,17.70
2019-03-24T22:00:24.302Z,16.97
2019-03-24T22:03:04.703Z,16.60
2019-03-24T22:05:45.608Z,18.87
2019-03-24T22:08:26.150Z,16.80
2019-03-24T22:11:06.539Z,16.70
2019-03-24T22:13:46.404Z,18.02
2019-03-24T22:16:26.614Z,18.30
2019-03-24T22:19:06.449Z,17.87
2019-03-24T22:21:47.062Z,17.70
2019-03-24T22:24:27.101Z,18.17
2019-03-24T22:27:07.045Z,18.95
2019-03-24T22:29:48.370Z,20.90
2019-03-24T22:32:29.558Z,18.60
2019-03-24T22:35:10.425Z,19.62
2019-03-24T22:37:50.845Z,27.00
2019-03-24T22:40:31.448Z,25.68
2019-03-24T22:43:11.699Z,21.35
2019-03-24T22:45:51.953Z,18.37
2019-03-24T22:48:32.753Z,16.27
2019-03-24T22:51:12.746Z,15.35
2019-03-24T22:54:02.998Z,15.65
2019-03-24T22:56:35.265Z,14.68
2019-03-24T22:59:15.125Z,13.53
2019-03-24T23:01:55.201Z,15.32
2019-03-24T23:04:35.596Z,14.63
2019-03-24T23:07:15.876Z,13.58
2019-03-24T23:09:56.625Z,14.33
2019-03-24T23:12:38.746Z,13.93
2019-03-24T23:15:18.442Z,14.28
2019-03-24T23:17:58.813Z,12.23
2019-03-24T23:20:39.500Z,11.33
2019-03-24T23:23:19.494Z,11.13
2019-03-24T23:25:59.718Z,11.00
2019-03-24T23:28:41.348Z,11.60
2019-03-24T23:31:21.799Z,10.72
2019-03-24T23:34:02.029Z,9.65
2019-03-24T23:36:41.797Z,7.55
2019-03-24T23:39:22.146Z,9.78
2019-03-24T23:42:02.330Z,8.25
2019-03-24T23:44:44.298Z,9.78
2019-03-24T23:47:24.475Z,7.92
2019-03-24T23:50:04.682Z,8.65
2019-03-24T23:52:44.816Z,7.97
2019-03-24T23:55:24.899Z,7.67
2019-03-24T23:58:04.801Z,8.23
